Time;durP1;ratioP1;P1;durP2;ratioP2;P2;SDS_P1;SDS_P2;PMS_P1;PMS_P2;Temp;Humidity;BMP_temperature;BMP_pressure;BME280_temperature;BME280_humidity;BME280_pressure;Samples;Min_cycle;Max_cycle;Signal;HPM_P1;HPM_P2
2022/06/14 00:00:59;;;;;;;2.70;0.90;;;12.20;99.90;;;;;;6246128;23;20082;-92
2022/06/14 00:03:35;;;;;;;2.92;1.08;;;12.20;99.90;;;;;;6221287;23;20034;-92
2022/06/14 00:09:15;;;;;;;3.75;0.80;;;12.20;99.90;;;;;;6243787;22;20028;-92
2022/06/14 00:12:14;;;;;;;3.00;0.90;;;12.20;99.90;;;;;;6221250;23;20024;-92
2022/06/14 00:14:40;;;;;;;4.53;0.90;;;12.20;99.90;;;;;;6165767;23;20012;-92
2022/06/14 00:17:06;;;;;;;1.90;1.00;;;12.20;99.90;;;;;;6221728;23;20065;-92
2022/06/14 00:19:31;;;;;;;5.70;1.00;;;12.20;99.90;;;;;;6222554;23;20063;-93
2022/06/14 00:22:01;;;;;;;4.77;0.87;;;12.20;99.90;;;;;;6225988;23;20020;-92
2022/06/14 00:32:16;;;;;;;2.97;0.90;;;12.20;99.90;;;;;;6234954;22;20039;-92
2022/06/14 00:34:41;;;;;;;2.07;0.90;;;12.20;99.90;;;;;;6167054;23;20052;-93
2022/06/14 00:37:14;;;;;;;1.90;0.73;;;12.20;99.90;;;;;;6167117;23;20048;-93
2022/06/14 00:39:39;;;;;;;2.33;0.70;;;12.20;99.90;;;;;;6166731;23;20017;-94
2022/06/14 00:45:30;;;;;;;4.00;1.00;;;12.20;99.90;;;;;;6257692;22;20046;-95
2022/06/14 00:48:18;;;;;;;3.05;0.68;;;12.20;99.90;;;;;;6272429;22;20004;-93
2022/06/14 00:51:13;;;;;;;3.05;0.85;;;12.20;99.90;;;;;;6277417;22;20015;-94
2022/06/14 00:53:48;;;;;;;4.60;1.40;;;12.20;99.90;;;;;;6279760;22;20022;-94
2022/06/14 00:56:20;;;;;;;3.00;0.73;;;12.10;99.90;;;;;;6256804;22;20141;-93
2022/06/14 00:58:52;;;;;;;3.20;0.70;;;12.10;99.90;;;;;;6256961;22;20394;-92
2022/06/14 01:01:25;;;;;;;3.90;0.80;;;12.20;99.90;;;;;;6256480;22;20099;-92
2022/06/14 01:04:29;;;;;;;4.25;1.00;;;12.20;99.90;;;;;;6256328;22;20016;-90
2022/06/14 01:07:05;;;;;;;2.63;0.82;;;12.20;99.90;;;;;;6276517;22;20054;-91
2022/06/14 01:09:54;;;;;;;2.93;0.80;;;12.10;99.90;;;;;;6255977;22;20011;-92
2022/06/14 01:12:26;;;;;;;2.55;0.90;;;12.10;99.90;;;;;;6256542;22;20098;-91
2022/06/14 01:15:03;;;;;;;5.85;1.08;;;12.10;99.90;;;;;;6256229;22;20462;-92
2022/06/14 01:17:50;;;;;;;1.63;0.75;;;12.10;99.90;;;;;;6256743;22;20026;-92
2022/06/14 01:20:20;;;;;;;3.05;1.02;;;12.10;99.90;;;;;;6256507;22;20023;-93
2022/06/14 01:22:47;;;;;;;2.65;1.00;;;12.10;99.90;;;;;;6256454;22;20011;-93
2022/06/14 01:25:13;;;;;;;3.10;1.05;;;12.10;99.90;;;;;;6266061;22;20317;-91
2022/06/14 01:27:41;;;;;;;3.47;0.90;;;12.10;99.90;;;;;;6259168;22;20019;-93
2022/06/14 01:30:07;;;;;;;4.47;1.15;;;12.00;99.90;;;;;;6256494;22;20019;-93
2022/06/14 01:36:53;;;;;;;5.20;1.00;;;11.90;99.90;;;;;;6309584;22;20031;-93
2022/06/14 01:39:19;;;;;;;3.33;1.10;;;11.90;99.90;;;;;;6256256;22;20028;-92
2022/06/14 01:41:48;;;;;;;;;;;11.90;99.90;;;;;;6257325;22;20023;-92
2022/06/14 01:44:26;;;;;;;5.20;1.25;;;12.00;99.90;;;;;;6255894;22;20324;-92
2022/06/14 01:47:08;;;;;;;3.80;1.23;;;12.00;99.90;;;;;;6255726;22;20022;-92
2022/06/14 01:52:41;;;;;;;2.50;1.02;;;12.00;99.90;;;;;;6281851;22;20475;-93
2022/06/14 01:55:18;;;;;;;2.75;0.98;;;12.00;99.90;;;;;;6256293;22;20015;-92
2022/06/14 01:58:41;;;;;;;3.63;1.10;;;12.10;99.90;;;;;;6256577;22;20015;-93
2022/06/14 02:01:37;;;;;;;5.75;1.20;;;12.10;99.90;;;;;;6135061;23;20021;-92
2022/06/14 02:04:39;;;;;;;3.03;0.90;;;12.10;99.90;;;;;;6135091;23;20021;-93
2022/06/14 02:07:35;;;;;;;5.93;1.27;;;12.10;99.90;;;;;;6246402;22;20393;-94
2022/06/14 02:10:26;;;;;;;2.83;1.20;;;12.10;99.90;;;;;;6256006;22;20444;-93
2022/06/14 02:13:10;;;;;;;3.28;1.20;;;12.10;99.90;;;;;;6256171;22;20098;-92
2022/06/14 02:16:21;;;;;;;2.92;1.08;;;12.10;99.90;;;;;;6255583;22;20019;-92
2022/06/14 02:18:47;;;;;;;2.85;0.88;;;12.10;99.90;;;;;;6250156;22;20019;-92
2022/06/14 02:21:54;;;;;;;2.40;0.90;;;12.10;99.90;;;;;;6256785;22;20094;-93
2022/06/14 02:57:07;;;;;;;2.63;0.93;;;11.70;99.90;;;;;;6307399;22;20024;-91
2022/06/14 02:59:39;;;;;;;1.60;0.80;;;11.70;99.90;;;;;;6255812;22;20019;-91
2022/06/14 03:02:14;;;;;;;4.32;0.93;;;11.70;99.90;;;;;;6255566;22;20015;-92
2022/06/14 03:07:28;;;;;;;3.00;1.20;;;11.60;99.90;;;;;;6246421;22;20028;-90
2022/06/14 03:09:54;;;;;;;4.13;0.90;;;11.60;99.90;;;;;;6219987;23;20023;-90
2022/06/14 03:13:09;;;;;;;3.13;0.95;;;11.60;99.90;;;;;;6220028;23;20047;-90
2022/06/14 03:15:48;;;;;;;4.13;0.90;;;11.60;99.90;;;;;;6100751;23;20384;-90
2022/06/14 03:18:17;;;;;;;2.60;0.75;;;11.60;99.90;;;;;;6085480;22;20100;-90
2022/06/14 03:21:23;;;;;;;4.07;0.95;;;11.60;99.90;;;;;;6220255;23;20464;-89
2022/06/14 03:57:41;;;;;;;3.53;0.93;;;11.60;99.90;;;;;;6217901;22;20454;-92
2022/06/14 04:00:22;;;;;;;4.80;1.10;;;11.60;99.90;;;;;;6191999;23;20338;-92
2022/06/14 04:02:55;;;;;;;2.10;0.80;;;11.60;99.90;;;;;;6191998;23;20104;-93
2022/06/14 04:05:43;;;;;;;2.78;1.00;;;11.60;99.90;;;;;;6191426;23;20012;-91
2022/06/14 04:08:35;;;;;;;3.33;1.95;;;11.60;99.90;;;;;;6191504;23;20472;-92
2022/06/14 04:11:48;;;;;;;2.85;1.08;;;11.60;99.90;;;;;;6191089;23;20438;-92
2022/06/14 04:14:44;;;;;;;4.13;1.33;;;11.60;99.90;;;;;;6191239;23;20017;-91
2022/06/14 04:17:22;;;;;;;3.17;0.98;;;11.60;99.90;;;;;;6191271;23;20350;-92
2022/06/14 04:21:15;;;;;;;4.80;1.00;;;11.60;99.90;;;;;;6191552;23;20103;-92
2022/06/14 04:23:50;;;;;;;4.80;1.40;;;11.70;99.90;;;;;;6156796;23;20028;-92
2022/06/14 04:26:30;;;;;;;3.08;0.98;;;11.70;99.90;;;;;;6146120;23;20032;-91
2022/06/14 04:29:11;;;;;;;4.30;1.23;;;11.70;99.90;;;;;;6191547;23;20333;-91
2022/06/14 04:31:45;;;;;;;3.95;1.00;;;11.70;99.90;;;;;;6191002;23;20016;-90
2022/06/14 04:34:41;;;;;;;4.38;1.23;;;11.70;99.90;;;;;;6216252;23;20021;-91
2022/06/14 04:37:13;;;;;;;2.97;1.10;;;11.70;99.90;;;;;;6190885;23;20024;-90
2022/06/14 04:51:06;;;;;;;4.25;0.90;;;11.80;99.90;;;;;;6220621;22;20027;-89
2022/06/14 05:16:36;;;;;;;3.90;1.00;;;12.60;99.90;;;;;;6217348;22;20020;-91
2022/06/14 05:19:52;;;;;;;3.25;0.70;;;12.70;99.90;;;;;;6160233;23;20020;-92
2022/06/14 05:39:06;;;;;;;4.05;0.90;;;13.20;99.90;;;;;;6255442;22;20073;-92
2022/06/14 05:41:45;;;;;;;4.70;0.93;;;13.20;99.90;;;;;;6256321;22;20479;-90
2022/06/14 06:18:34;;;;;;;4.65;0.90;;;13.80;99.90;;;;;;6308166;22;20030;-89
2022/06/14 06:21:44;;;;;;;3.60;0.82;;;14.00;99.90;;;;;;6280826;22;20026;-89
2022/06/14 06:24:37;;;;;;;2.25;1.10;;;14.30;99.90;;;;;;6255053;22;20046;-90
2022/06/14 06:27:11;;;;;;;2.22;0.95;;;14.90;99.90;;;;;;6280719;22;20015;-90
2022/06/14 07:42:03;;;;;;;1.42;0.50;;;18.20;99.90;;;;;;6228431;22;20050;-89
2022/06/14 07:44:53;;;;;;;1.70;0.60;;;18.00;99.90;;;;;;6254698;22;20068;-89
2022/06/14 13:04:05;;;;;;;2.90;0.70;;;18.30;99.90;;;;;;6289792;22;20055;-90
2022/06/14 13:23:29;;;;;;;2.63;0.47;;;18.40;99.90;;;;;;6255720;22;20026;-89
2022/06/14 13:31:27;;;;;;;2.25;0.60;;;18.30;99.90;;;;;;6309339;22;20030;-90
2022/06/14 13:34:51;;;;;;;1.00;0.50;;;18.30;99.90;;;;;;6264482;22;20073;-89
2022/06/14 13:38:02;;;;;;;2.42;0.80;;;18.20;99.90;;;;;;6244888;23;20052;-89
2022/06/14 13:40:39;;;;;;;2.60;0.98;;;18.20;99.90;;;;;;6194494;23;20075;-88
2022/06/14 13:43:26;;;;;;;2.05;0.85;;;18.10;99.90;;;;;;6194324;23;20377;-89
2022/06/14 13:46:11;;;;;;;4.43;2.35;;;18.10;99.90;;;;;;6194123;23;20500;-89
2022/06/14 13:48:45;;;;;;;2.15;0.93;;;18.10;99.90;;;;;;6219100;23;20075;-89
2022/06/14 13:51:22;;;;;;;2.80;1.08;;;18.00;99.90;;;;;;6194061;23;20068;-89
2022/06/14 13:54:06;;;;;;;1.70;0.80;;;17.90;99.90;;;;;;6219339;23;20099;-89
2022/06/14 13:56:55;;;;;;;1.92;0.80;;;17.90;99.90;;;;;;6219326;23;20016;-89
2022/06/14 14:02:13;;;;;;;3.00;0.90;;;17.80;99.90;;;;;;6252915;22;20023;-88
2022/06/14 14:07:41;;;;;;;2.78;0.80;;;17.80;99.90;;;;;;6277359;22;20028;-89
2022/06/14 14:10:36;;;;;;;2.22;0.73;;;17.80;99.90;;;;;;6225391;22;20020;-89
2022/06/14 14:13:06;;;;;;;4.05;0.82;;;17.80;99.90;;;;;;6225274;22;20015;-89
2022/06/14 14:15:50;;;;;;;1.35;0.68;;;17.90;99.90;;;;;;6225216;22;20016;-89
2022/06/14 14:18:37;;;;;;;1.63;0.80;;;17.90;99.90;;;;;;6224728;22;20453;-89
2022/06/14 14:26:35;;;;;;;1.75;0.70;;;18.00;99.90;;;;;;6241853;22;20028;-88
2022/06/14 14:29:30;;;;;;;1.27;0.50;;;18.00;99.90;;;;;;6189737;23;20013;-90
2022/06/14 14:32:16;;;;;;;2.10;0.73;;;18.00;99.90;;;;;;6189825;23;20059;-91
2022/06/14 14:34:52;;;;;;;2.65;0.70;;;18.00;99.90;;;;;;6189629;23;20017;-89
2022/06/14 15:08:32;;;;;;;2.67;0.80;;;18.40;99.90;;;;;;6249635;22;20035;-93
2022/06/14 20:41:26;;;;;;;4.30;1.98;;;15.90;99.90;;;;;;6284362;22;20376;-91
2022/06/14 23:57:57;;;;;;;6.25;3.08;;;13.90;99.90;;;;;;6309020;22;20027;-91
